createdAt,value
2019-01-02T00:00:11.333Z,1.50
2019-01-02T00:05:07.897Z,1.20
2019-01-02T00:10:05.207Z,1.20
2019-01-02T00:15:00.924Z,1.60
2019-01-02T00:19:56.653Z,1.53
2019-01-02T00:24:52.411Z,2.17
2019-01-02T00:29:49.006Z,1.67
2019-01-02T00:34:45.791Z,1.80
2019-01-02T00:39:42.338Z,1.90
2019-01-02T00:44:38.095Z,1.40
2019-01-02T00:49:34.715Z,1.87
2019-01-02T00:54:30.700Z,1.97
2019-01-02T00:59:26.727Z,1.40
2019-01-02T01:04:23.257Z,1.70
2019-01-02T01:09:19.725Z,2.43
2019-01-02T01:14:15.763Z,1.70
2019-01-02T01:19:11.565Z,1.90
2019-01-02T01:24:07.443Z,2.00
2019-01-02T01:29:04.210Z,2.37
2019-01-02T01:34:00.991Z,2.27
2019-01-02T01:38:56.895Z,1.73
2019-01-02T01:43:52.593Z,1.90
2019-01-02T01:48:49.736Z,1.80
2019-01-02T01:53:45.544Z,2.03
2019-01-02T01:58:42.279Z,1.70
2019-01-02T02:03:38.739Z,1.60
2019-01-02T02:08:35.945Z,1.83
2019-01-02T02:13:31.703Z,1.47
2019-01-02T02:18:28.429Z,1.70
2019-01-02T02:23:25.095Z,1.50
2019-01-02T02:28:21.810Z,1.40
2019-01-02T02:33:17.541Z,1.50
2019-01-02T02:38:13.977Z,1.90
2019-01-02T02:43:10.771Z,1.80
2019-01-02T02:48:07.492Z,2.10
2019-01-02T02:53:04.381Z,1.80
2019-01-02T02:58:02.208Z,2.13
2019-01-02T03:02:58.019Z,2.40
2019-01-02T03:07:53.835Z,2.27
2019-01-02T03:12:50.053Z,2.53
2019-01-02T03:17:46.285Z,2.23
2019-01-02T03:22:43.397Z,3.10
2019-01-02T03:27:39.972Z,2.43
2019-01-02T03:32:37.060Z,2.20
2019-01-02T03:37:33.892Z,2.17
2019-01-02T03:42:29.847Z,2.70
2019-01-02T03:47:25.577Z,3.03
2019-01-02T03:52:21.324Z,2.43
2019-01-02T03:57:17.032Z,2.30
2019-01-02T04:02:14.816Z,2.60
2019-01-02T04:07:10.983Z,2.67
2019-01-02T04:12:09.797Z,2.53
2019-01-02T04:17:06.603Z,2.10
2019-01-02T04:22:02.549Z,2.23
2019-01-02T04:26:58.287Z,2.20
2019-01-02T04:31:54.169Z,2.00
2019-01-02T04:36:50.321Z,2.67
2019-01-02T04:41:46.039Z,2.60
2019-01-02T04:46:42.846Z,2.53
2019-01-02T04:51:38.543Z,1.90
2019-01-02T04:56:34.292Z,2.57
2019-01-02T05:01:30.035Z,2.37
2019-01-02T05:06:27.060Z,2.97
2019-01-02T05:11:23.058Z,2.63
2019-01-02T05:16:18.939Z,3.10
2019-01-02T05:21:14.648Z,2.43
2019-01-02T05:26:11.185Z,2.50
2019-01-02T05:31:06.853Z,2.80
2019-01-02T05:36:02.683Z,2.93
2019-01-02T05:40:58.399Z,3.13
2019-01-02T05:45:54.870Z,2.60
2019-01-02T05:50:50.782Z,3.23
2019-01-02T05:55:46.487Z,3.13
2019-01-02T06:00:42.208Z,3.60
2019-01-02T06:05:38.156Z,3.23
2019-01-02T06:10:33.829Z,2.83
2019-01-02T06:15:30.031Z,3.30
2019-01-02T06:20:26.260Z,4.23
2019-01-02T06:25:22.012Z,3.80
2019-01-02T06:30:17.731Z,3.17
2019-01-02T06:35:13.561Z,3.03
2019-01-02T06:40:10.191Z,3.63
2019-01-02T06:45:07.334Z,3.80
2019-01-02T06:50:05.138Z,3.57
2019-01-02T06:55:01.713Z,4.00
2019-01-02T06:59:57.535Z,3.43
2019-01-02T07:04:53.258Z,4.20
2019-01-02T07:09:56.130Z,3.10
2019-01-02T07:14:51.981Z,3.33
2019-01-02T07:19:47.670Z,2.67
2019-01-02T07:24:43.613Z,3.17
2019-01-02T07:29:40.032Z,3.57
2019-01-02T07:34:40.481Z,3.07
2019-01-02T07:39:55.605Z,3.60
2019-01-02T07:44:59.375Z,3.80
2019-01-02T07:49:57.551Z,3.10
2019-01-02T07:55:01.033Z,3.07
2019-01-02T08:00:01.857Z,3.77
2019-01-02T08:05:12.262Z,2.97
2019-01-02T08:10:19.130Z,3.63
2019-01-02T08:15:23.342Z,3.43
2019-01-02T08:20:24.112Z,3.73
2019-01-02T08:25:36.907Z,3.20
2019-01-02T08:30:44.153Z,3.40
2019-01-02T08:35:44.544Z,3.10
2019-01-02T08:40:48.200Z,3.50
2019-01-02T08:45:45.829Z,3.00
2019-01-02T08:50:49.272Z,3.00
2019-01-02T08:55:46.874Z,2.80
2019-01-02T09:00:44.621Z,3.27
2019-01-02T09:05:45.255Z,3.10
2019-01-02T09:10:46.196Z,2.77
2019-01-02T09:15:47.389Z,3.30
2019-01-02T09:20:51.039Z,3.43
2019-01-02T09:25:51.759Z,3.07
2019-01-02T09:30:55.468Z,3.60
2019-01-02T09:36:09.526Z,3.60
2019-01-02T09:41:10.321Z,3.77
2019-01-02T09:46:13.689Z,5.07
2019-01-02T09:51:27.761Z,4.63
2019-01-02T09:56:41.840Z,3.70
2019-01-02T10:01:42.634Z,3.43
2019-01-02T10:06:40.345Z,3.87
2019-01-02T10:11:47.302Z,3.77
2019-01-02T10:16:45.682Z,3.73
2019-01-02T10:21:50.147Z,4.03
2019-01-02T10:26:48.661Z,3.60
2019-01-02T10:31:55.790Z,4.10
2019-01-02T10:36:53.737Z,3.77
2019-01-02T10:42:10.881Z,3.63
2019-01-02T10:47:09.001Z,4.83
2019-01-02T10:52:21.514Z,3.40
2019-01-02T10:57:22.916Z,3.60
2019-01-02T11:02:20.518Z,3.67
2019-01-02T11:07:24.143Z,3.90
2019-01-02T11:12:31.038Z,4.17
2019-01-02T11:17:33.082Z,4.30
2019-01-02T11:28:09.450Z,2.90
2019-01-02T11:33:19.037Z,2.20
2019-01-02T11:38:22.831Z,0.87
2019-01-02T11:43:37.223Z,0.60
2019-01-02T11:48:33.072Z,0.97
2019-01-02T11:53:29.273Z,2.83
2019-01-02T11:58:24.971Z,1.30
2019-01-02T12:03:23.314Z,2.70
2019-01-02T12:08:19.395Z,3.37
2019-01-02T12:13:16.003Z,3.63
2019-01-02T12:18:11.795Z,4.07
2019-01-02T12:23:07.749Z,2.90
2019-01-02T12:28:03.962Z,3.80
2019-01-02T12:32:59.650Z,3.73
2019-01-02T12:37:56.525Z,3.20
2019-01-02T12:42:52.259Z,2.67
2019-01-02T12:47:48.105Z,3.00
2019-01-02T12:52:45.061Z,2.77
2019-01-02T12:57:40.780Z,2.40
2019-01-02T13:02:41.351Z,5.30
2019-01-02T13:07:54.130Z,2.77
2019-01-02T13:13:00.537Z,3.03
2019-01-02T13:17:58.275Z,3.30
2019-01-02T13:22:58.949Z,4.80
2019-01-02T13:27:57.936Z,3.00
2019-01-02T13:32:58.287Z,2.53
2019-01-02T13:37:59.877Z,2.43
2019-01-02T13:43:00.384Z,2.13
2019-01-02T13:47:58.165Z,2.10
2019-01-02T13:52:55.011Z,2.20
2019-01-02T13:57:51.921Z,3.20
2019-01-02T14:02:47.752Z,2.10
2019-01-02T14:07:43.568Z,4.10
2019-01-02T14:12:39.471Z,2.33
2019-01-02T14:17:35.166Z,2.30
2019-01-02T14:22:30.880Z,2.90
2019-01-02T14:27:26.725Z,2.00
2019-01-02T14:32:22.533Z,1.80
2019-01-02T14:37:18.342Z,2.37
2019-01-02T14:42:14.061Z,2.23
2019-01-02T14:47:09.863Z,2.20
2019-01-02T14:52:06.346Z,2.37
2019-01-02T14:57:02.995Z,1.97
2019-01-02T15:01:59.035Z,2.10
2019-01-02T15:06:54.752Z,2.00
2019-01-02T15:11:50.820Z,2.40
2019-01-02T15:16:46.524Z,3.20
2019-01-02T15:21:42.309Z,3.50
2019-01-02T15:26:38.117Z,2.90
2019-01-02T15:31:34.339Z,2.20
2019-01-02T15:36:30.338Z,2.90
2019-01-02T15:41:26.048Z,2.40
2019-01-02T15:46:21.867Z,3.43
2019-01-02T15:51:17.675Z,2.30
2019-01-02T15:56:13.422Z,2.10
2019-01-02T16:01:09.978Z,1.80
2019-01-02T16:06:05.779Z,3.67
2019-01-02T16:11:01.477Z,2.90
2019-01-02T16:15:57.775Z,2.60
2019-01-02T16:20:54.222Z,2.90
2019-01-02T16:25:50.161Z,2.10
2019-01-02T16:30:46.112Z,2.20
2019-01-02T16:35:42.615Z,2.43
2019-01-02T16:40:38.298Z,2.93
2019-01-02T16:45:34.026Z,3.80
2019-01-02T16:50:29.813Z,2.30
2019-01-02T16:55:25.886Z,3.57
2019-01-02T17:00:22.361Z,2.47
2019-01-02T17:05:18.421Z,3.07
2019-01-02T17:10:14.424Z,2.90
2019-01-02T17:15:10.482Z,3.60
2019-01-02T17:20:07.021Z,4.50
2019-01-02T17:25:03.782Z,3.07
2019-01-02T17:29:59.700Z,2.40
2019-01-02T17:34:55.379Z,3.03
2019-01-02T17:39:51.712Z,2.13
2019-01-02T17:44:47.551Z,2.60
2019-01-02T17:49:43.371Z,3.20
2019-01-02T17:54:39.091Z,2.20
2019-01-02T17:59:35.062Z,2.13
2019-01-02T18:04:30.942Z,2.87
2019-01-02T18:09:26.681Z,2.50
2019-01-02T18:14:22.626Z,2.10
2019-01-02T18:19:19.959Z,1.97
2019-01-02T18:24:17.402Z,2.73
2019-01-02T18:29:13.215Z,2.27
2019-01-02T18:34:08.940Z,2.50
2019-01-02T18:39:05.569Z,2.97
2019-01-02T18:44:01.265Z,3.00
2019-01-02T18:48:57.242Z,2.17
2019-01-02T18:53:52.973Z,2.70
2019-01-02T18:58:48.658Z,2.33
2019-01-02T19:03:44.366Z,3.13
2019-01-02T19:08:40.172Z,2.27
2019-01-02T19:13:35.988Z,2.53
2019-01-02T19:18:31.790Z,2.40
2019-01-02T19:23:27.487Z,2.07
2019-01-02T19:28:23.241Z,2.60
2019-01-02T19:33:19.046Z,3.60
2019-01-02T19:38:14.733Z,2.47
2019-01-02T19:43:10.452Z,5.50
2019-01-02T19:48:06.145Z,3.60
2019-01-02T19:53:02.049Z,2.90
2019-01-02T19:57:57.771Z,2.10
2019-01-02T20:02:53.749Z,1.90
2019-01-02T20:07:49.488Z,3.23
2019-01-02T20:12:45.174Z,2.97
2019-01-02T20:17:40.982Z,3.23
2019-01-02T20:22:36.836Z,3.30
2019-01-02T20:27:32.533Z,2.40
2019-01-02T20:32:28.241Z,2.20
2019-01-02T20:37:24.193Z,1.80
2019-01-02T20:42:19.944Z,2.10
2019-01-02T20:47:15.714Z,1.60
2019-01-02T20:52:11.395Z,1.73
2019-01-02T20:57:07.121Z,2.17
2019-01-02T21:02:02.853Z,2.10
2019-01-02T21:06:58.623Z,2.40
2019-01-02T21:11:54.605Z,2.30
2019-01-02T21:16:50.573Z,2.87
2019-01-02T21:21:46.508Z,3.77
2019-01-02T21:26:42.232Z,1.73
2019-01-02T21:31:37.939Z,1.60
2019-01-02T21:36:33.673Z,1.40
2019-01-02T21:41:29.419Z,1.50
2019-01-02T21:46:25.104Z,1.80
2019-01-02T21:51:20.824Z,1.57
2019-01-02T21:56:16.757Z,1.50
2019-01-02T22:01:12.441Z,1.90
2019-01-02T22:06:08.599Z,1.33
2019-01-02T22:11:04.425Z,1.60
2019-01-02T22:16:00.113Z,1.60
2019-01-02T22:20:55.833Z,1.10
2019-01-02T22:25:51.638Z,2.03
2019-01-02T22:30:47.373Z,1.90
2019-01-02T22:35:43.347Z,2.03
2019-01-02T22:40:39.073Z,1.93
2019-01-02T22:45:34.749Z,1.77
2019-01-02T22:50:30.460Z,1.63
2019-01-02T22:55:26.173Z,1.63
2019-01-02T23:00:35.779Z,1.70
2019-01-02T23:05:33.385Z,1.53
2019-01-02T23:10:31.086Z,1.60
2019-01-02T23:15:44.976Z,1.30
2019-01-02T23:20:48.621Z,1.50
2019-01-02T23:25:52.135Z,1.57
2019-01-02T23:30:52.358Z,1.70
2019-01-02T23:36:07.975Z,1.10
2019-01-02T23:41:20.640Z,1.67
2019-01-02T23:46:21.224Z,1.60
2019-01-02T23:51:35.395Z,1.80
2019-01-02T23:56:33.116Z,1.40
